»·PEaware :: N915TB KLSV-KTUS

N915TB :: KLSV-KTUS

FLIGHT INFORMATION

Flight Status: Arrived
Operator: Privately registered:
United States
More flights under this callsign
Pilot: Jake M. (20491)
Aircraft: SOCATA TBM-900
(TBM9)
More flights by this aircraft type
Origin: KLSV Nellis AFB
United States
Destination: KTUS Tucson Intl
United States
More flights between these airports :: More routes between these airports
Route: BLD TFD DINGO5
File this flight plan on PilotEdge
Remarks:
Altitude:
(Current/Filed)
29,000ft
Speed:
(Current/Filed)
300kts
Departed: 08-Apr-19 03:39 PM
Arrived: 08-Apr-19 05:06 PM
Distance/Time
Traveled:
319nm/1:26
Distance/Time
To Go:
Arrived

Flight Plot

Page will automatically refresh every two minutes.

Flight plan parsing failed; only flown route is shown


Map Options




Map Legend


Flown Route
Filed Route
Departure Airport
Arrival Airport
Navaid (VOR, NDB)
Fix

Horizontal Profiles

Position Reports

Time Latitude Longitude Heading Altitude Ground
Speed
08-Apr-19 15:21 36.246941 -115.034684 175 1881ft 0kts
08-Apr-19 15:22 36.246941 -115.034684 175 1881ft 0kts
08-Apr-19 15:23 36.246941 -115.034684 175 1881ft 0kts
08-Apr-19 15:24 36.246941 -115.034684 175 1881ft 0kts
08-Apr-19 15:25 36.246941 -115.034684 175 1881ft 0kts
08-Apr-19 15:26 36.246941 -115.034684 175 1881ft 0kts
08-Apr-19 15:27 36.246941 -115.034684 175 1881ft 0kts
08-Apr-19 15:28 36.246941 -115.034684 175 1881ft 0kts
08-Apr-19 15:29 36.246941 -115.034684 175 1881ft 0kts
08-Apr-19 15:30 36.246941 -115.034684 175 1881ft 0kts
08-Apr-19 15:31 36.246941 -115.034684 175 1881ft 0kts
08-Apr-19 15:32 36.246409 -115.033443 120 1878ft 17kts
08-Apr-19 15:33 36.240555 -115.034709 219 1860ft 20kts
08-Apr-19 15:34 36.235719 -115.039853 217 1849ft 24kts
08-Apr-19 15:35 36.230344 -115.045392 221 1840ft 25kts
08-Apr-19 15:36 36.227227 -115.047856 95 1834ft 0kts
08-Apr-19 15:37 36.227058 -115.046692 83 1834ft 15kts
08-Apr-19 15:38 36.243547 -115.029776 40 2141ft 132kts
08-Apr-19 15:39 36.272446 -114.998238 40 3797ft 136kts
08-Apr-19 15:40 36.302080 -114.965958 40 5308ft 144kts
08-Apr-19 15:41 36.311775 -114.926942 150 6916ft 148kts
08-Apr-19 15:42 36.272958 -114.911166 161 8690ft 149kts
08-Apr-19 15:43 36.232459 -114.901014 173 10322ft 149kts
08-Apr-19 15:44 36.190422 -114.894178 177 11772ft 154kts
08-Apr-19 15:45 36.147392 -114.887425 178 13121ft 158kts
08-Apr-19 15:46 36.102796 -114.880420 179 14706ft 165kts
08-Apr-19 15:47 36.054069 -114.872787 179 16351ft 183kts
08-Apr-19 15:48 36.002881 -114.864707 180 18048ft 189kts
08-Apr-19 15:49 35.957306 -114.825221 145 19552ft 207kts
08-Apr-19 15:50 35.911882 -114.779965 146 21176ft 212kts
08-Apr-19 15:51 35.865370 -114.733690 146 22610ft 218kts
08-Apr-19 15:52 35.817879 -114.686535 146 23934ft 221kts
08-Apr-19 15:53 35.769270 -114.638310 146 25091ft 227kts
08-Apr-19 15:54 35.719494 -114.589031 146 26149ft 232kts
08-Apr-19 15:55 35.668522 -114.538657 146 27119ft 236kts
08-Apr-19 15:56 35.616895 -114.487731 147 27990ft 241kts
08-Apr-19 15:57 35.563672 -114.435305 147 29044ft 248kts
08-Apr-19 15:58 35.504889 -114.377562 145 29113ft 289kts
08-Apr-19 15:59 35.439645 -114.313482 146 29134ft 308kts
08-Apr-19 16:00 35.371575 -114.246840 146 29172ft 315kts
08-Apr-19 16:01 35.302586 -114.179450 146 29183ft 319kts
08-Apr-19 16:02 35.232598 -114.111247 145 29183ft 322kts
08-Apr-19 16:03 35.162165 -114.042766 145 29177ft 323kts
08-Apr-19 16:04 35.091722 -113.974496 144 29183ft 324kts
08-Apr-19 16:05 35.020686 -113.905680 144 29185ft 326kts
08-Apr-19 16:06 34.949376 -113.836820 144 29186ft 327kts
08-Apr-19 16:07 34.877907 -113.767962 144 29182ft 328kts
08-Apr-19 16:08 34.806178 -113.699006 144 29184ft 328kts
08-Apr-19 16:09 34.734353 -113.630127 144 29184ft 328kts
08-Apr-19 16:10 34.662333 -113.561207 143 29176ft 328kts
08-Apr-19 16:11 34.590310 -113.492442 143 29189ft 328kts
08-Apr-19 16:12 34.518419 -113.423962 143 29194ft 329kts
08-Apr-19 16:13 34.446202 -113.355325 143 29200ft 329kts
08-Apr-19 16:14 34.374265 -113.287108 144 29228ft 328kts
08-Apr-19 16:15 34.302310 -113.219028 144 29246ft 329kts
08-Apr-19 16:16 34.230347 -113.151087 143 29245ft 329kts
08-Apr-19 16:17 34.157486 -113.082452 143 29154ft 332kts
08-Apr-19 16:18 34.084594 -113.013952 143 29058ft 333kts
08-Apr-19 16:19 34.011327 -112.945252 143 29038ft 332kts
08-Apr-19 16:20 33.938348 -112.876978 142 29040ft 332kts
08-Apr-19 16:21 33.865476 -112.808930 142 29035ft 332kts
08-Apr-19 16:22 33.792570 -112.740834 144 29039ft 327kts
08-Apr-19 16:23 33.720839 -112.674358 145 28520ft 329kts
08-Apr-19 16:24 33.647890 -112.606693 145 27748ft 332kts
08-Apr-19 16:25 33.574640 -112.538921 145 26974ft 333kts
08-Apr-19 16:26 33.500894 -112.470813 145 26192ft 331kts
08-Apr-19 16:27 33.428526 -112.404145 145 25410ft 328kts
08-Apr-19 16:28 33.356646 -112.338065 146 24632ft 326kts
08-Apr-19 16:29 33.284886 -112.272235 146 24021ft 318kts
08-Apr-19 16:30 33.215968 -112.209172 145 23589ft 314kts
08-Apr-19 16:31 33.145506 -112.144808 145 22197ft 322kts
08-Apr-19 16:32 33.074066 -112.079683 144 20756ft 326kts
08-Apr-19 16:33 33.002344 -112.014430 144 19321ft 322kts
08-Apr-19 16:34 32.932142 -111.950705 143 17915ft 313kts
08-Apr-19 16:35 32.862707 -111.889520 145 16538ft 309kts
08-Apr-19 16:36 32.792361 -111.831243 145 15171ft 306kts
08-Apr-19 16:37 32.723045 -111.773925 144 13823ft 301kts
08-Apr-19 16:38 32.654604 -111.717437 144 12494ft 299kts
08-Apr-19 16:39 32.586342 -111.661185 144 11169ft 296kts
08-Apr-19 16:40 32.527504 -111.595136 125 9864ft 294kts
08-Apr-19 16:42 32.478901 -111.517819 126 8959ft 282kts
08-Apr-19 16:43 32.430753 -111.449624 134 8958ft 257kts
08-Apr-19 16:44 32.381075 -111.390905 134 8962ft 250kts
08-Apr-19 16:45 32.331933 -111.332781 134 8962ft 249kts
08-Apr-19 16:46 32.281317 -111.272868 134 8972ft 260kts
08-Apr-19 16:47 32.229875 -111.211917 134 8982ft 262kts
08-Apr-19 16:48 32.178127 -111.150504 134 8994ft 263kts
08-Apr-19 16:49 32.126274 -111.088853 134 8999ft 264kts
08-Apr-19 16:50 32.074373 -111.027043 134 9000ft 264kts
08-Apr-19 16:51 32.022645 -110.965319 134 9003ft 264kts
08-Apr-19 16:52 31.970831 -110.903596 134 8793ft 267kts
08-Apr-19 16:53 31.917709 -110.840435 134 8114ft 269kts
08-Apr-19 16:54 31.866024 -110.778842 134 8035ft 260kts
08-Apr-19 16:55 31.817348 -110.717411 111 8043ft 251kts
08-Apr-19 16:56 31.853367 -110.673682 340 8098ft 203kts
08-Apr-19 16:57 31.904826 -110.692737 339 7817ft 190kts
08-Apr-19 16:58 31.944950 -110.734587 312 7026ft 197kts
08-Apr-19 16:59 31.975773 -110.774200 311 6076ft 142kts
08-Apr-19 17:00 32.001594 -110.805359 315 5840ft 131kts
08-Apr-19 17:01 32.028095 -110.835955 317 5199ft 135kts
08-Apr-19 17:02 32.052656 -110.865560 316 4211ft 129kts
08-Apr-19 17:03 32.077960 -110.894675 316 3427ft 87kts
08-Apr-19 17:04 32.093997 -110.913456 317 2881ft 77kts
08-Apr-19 17:05 32.107017 -110.928950 311 2630ft 43kts
08-Apr-19 17:05 32.112424 -110.934999 335 2611ft 23kts
08-Apr-19 17:07 32.115745 -110.935567 316 2605ft 19kts
08-Apr-19 17:08 32.120264 -110.940879 314 2590ft 26kts
08-Apr-19 17:08 32.124510 -110.945864 319 2573ft 19kts
08-Apr-19 17:10 32.125530 -110.943594 49 2576ft 0kts
08-Apr-19 17:10 32.125530 -110.943595 49 2576ft 0kts
08-Apr-19 17:11 32.125530 -110.943595 49 2576ft 0kts

Navigation Log

Ident Type
Flight plan parsing failed, navigation log unavailable